sensor_id;sensor_type;location;lat;lon;timestamp;pressure;altitude;pressure_sealevel;temperature;humidity
77192;BME280;66172;48.526;8.078;2023-12-20T00:01:47;99857.78;;;6.37;89.96
77192;BME280;66172;48.526;8.078;2023-12-20T00:04:13;99863.19;;;6.37;90.41
77192;BME280;66172;48.526;8.078;2023-12-20T00:06:39;99851.22;;;6.29;90.46
77192;BME280;66172;48.526;8.078;2023-12-20T00:09:05;99853.00;;;6.20;91.04
77192;BME280;66172;48.526;8.078;2023-12-20T00:11:31;99862.22;;;6.19;91.23
77192;BME280;66172;48.526;8.078;2023-12-20T00:13:57;99851.22;;;6.16;91.79
77192;BME280;66172;48.526;8.078;2023-12-20T00:16:23;99856.59;;;6.16;93.23
77192;BME280;66172;48.526;8.078;2023-12-20T00:18:49;99853.00;;;6.20;92.97
77192;BME280;66172;48.526;8.078;2023-12-20T00:21:14;99852.69;;;6.22;92.67
77192;BME280;66172;48.526;8.078;2023-12-20T00:23:40;99859.41;;;6.24;94.39
77192;BME280;66172;48.526;8.078;2023-12-20T00:26:06;99858.19;;;6.30;95.17
77192;BME280;66172;48.526;8.078;2023-12-20T00:28:32;99848.78;;;6.28;95.46
77192;BME280;66172;48.526;8.078;2023-12-20T00:30:58;99844.81;;;6.25;95.84
77192;BME280;66172;48.526;8.078;2023-12-20T00:33:24;99842.69;;;6.09;95.91
77192;BME280;66172;48.526;8.078;2023-12-20T00:35:50;99851.75;;;5.99;97.00
77192;BME280;66172;48.526;8.078;2023-12-20T00:38:16;99845.34;;;5.95;97.11
77192;BME280;66172;48.526;8.078;2023-12-20T00:40:41;99843.19;;;5.97;97.29
77192;BME280;66172;48.526;8.078;2023-12-20T00:43:07;99831.78;;;5.86;97.88
77192;BME280;66172;48.526;8.078;2023-12-20T00:45:33;99835.84;;;5.84;98.71
77192;BME280;66172;48.526;8.078;2023-12-20T00:47:59;99831.00;;;5.81;99.81
77192;BME280;66172;48.526;8.078;2023-12-20T00:50:25;99837.38;;;5.90;99.11
77192;BME280;66172;48.526;8.078;2023-12-20T00:52:51;99837.59;;;5.93;98.88
77192;BME280;66172;48.526;8.078;2023-12-20T00:55:17;99838.78;;;5.87;99.23
77192;BME280;66172;48.526;8.078;2023-12-20T00:57:43;99836.84;;;5.88;99.29
77192;BME280;66172;48.526;8.078;2023-12-20T01:00:09;99839.56;;;5.88;99.73
77192;BME280;66172;48.526;8.078;2023-12-20T01:02:40;99840.94;;;5.85;100.00
77192;BME280;66172;48.526;8.078;2023-12-20T01:05:06;99833.66;;;5.86;100.00
77192;BME280;66172;48.526;8.078;2023-12-20T01:07:33;99842.63;;;5.81;100.00
77192;BME280;66172;48.526;8.078;2023-12-20T01:09:59;99836.13;;;5.82;100.00
77192;BME280;66172;48.526;8.078;2023-12-20T01:12:25;99842.63;;;5.81;100.00
77192;BME280;66172;48.526;8.078;2023-12-20T01:14:51;99844.22;;;5.82;100.00
77192;BME280;66172;48.526;8.078;2023-12-20T01:17:17;99854.06;;;5.92;100.00
77192;BME280;66172;48.526;8.078;2023-12-20T01:19:42;99840.66;;;5.87;100.00
77192;BME280;66172;48.526;8.078;2023-12-20T01:22:08;99848.16;;;5.90;100.00
77192;BME280;66172;48.526;8.078;2023-12-20T01:24:34;99852.97;;;5.93;100.00
77192;BME280;66172;48.526;8.078;2023-12-20T01:27:00;99848.06;;;5.95;100.00
77192;BME280;66172;48.526;8.078;2023-12-20T01:29:26;99835.88;;;5.97;100.00
77192;BME280;66172;48.526;8.078;2023-12-20T01:31:52;99834.19;;;6.01;100.00
77192;BME280;66172;48.526;8.078;2023-12-20T01:34:18;99832.06;;;5.98;100.00
77192;BME280;66172;48.526;8.078;2023-12-20T01:36:44;99831.97;;;5.90;100.00
77192;BME280;66172;48.526;8.078;2023-12-20T01:39:10;99834.56;;;5.95;100.00
77192;BME280;66172;48.526;8.078;2023-12-20T01:41:36;99827.28;;;5.95;100.00
77192;BME280;66172;48.526;8.078;2023-12-20T01:44:02;99838.38;;;5.94;100.00
77192;BME280;66172;48.526;8.078;2023-12-20T01:46:27;99828.47;;;5.89;100.00
77192;BME280;66172;48.526;8.078;2023-12-20T01:48:54;99826.53;;;5.76;100.00
77192;BME280;66172;48.526;8.078;2023-12-20T01:51:20;99834.78;;;5.98;100.00
77192;BME280;66172;48.526;8.078;2023-12-20T01:53:47;99837.16;;;5.86;100.00
77192;BME280;66172;48.526;8.078;2023-12-20T01:56:13;99825.06;;;5.84;100.00
77192;BME280;66172;48.526;8.078;2023-12-20T01:58:46;99827.38;;;5.90;100.00
77192;BME280;66172;48.526;8.078;2023-12-20T02:01:13;99829.47;;;5.93;100.00
77192;BME280;66172;48.526;8.078;2023-12-20T02:03:41;99831.16;;;5.89;100.00
77192;BME280;66172;48.526;8.078;2023-12-20T02:06:07;99836.38;;;5.86;100.00
77192;BME280;66172;48.526;8.078;2023-12-20T02:08:34;99829.00;;;6.05;100.00
77192;BME280;66172;48.526;8.078;2023-12-20T02:11:00;99832.69;;;6.09;100.00
77192;BME280;66172;48.526;8.078;2023-12-20T02:13:26;99824.09;;;6.07;100.00
77192;BME280;66172;48.526;8.078;2023-12-20T02:15:52;99814.28;;;5.97;100.00
77192;BME280;66172;48.526;8.078;2023-12-20T02:18:18;99813.97;;;6.13;100.00
77192;BME280;66172;48.526;8.078;2023-12-20T02:20:44;99817.50;;;6.13;100.00
77192;BME280;66172;48.526;8.078;2023-12-20T02:23:10;99814.38;;;6.06;100.00
77192;BME280;66172;48.526;8.078;2023-12-20T02:25:36;99809.00;;;6.06;100.00
77192;BME280;66172;48.526;8.078;2023-12-20T02:28:03;99804.38;;;6.07;100.00
77192;BME280;66172;48.526;8.078;2023-12-20T02:30:31;99813.78;;;6.09;100.00
77192;BME280;66172;48.526;8.078;2023-12-20T02:32:58;99810.50;;;6.12;100.00
77192;BME280;66172;48.526;8.078;2023-12-20T02:35:25;99810.41;;;6.17;100.00
77192;BME280;66172;48.526;8.078;2023-12-20T02:37:51;99812.41;;;6.25;100.00
77192;BME280;66172;48.526;8.078;2023-12-20T02:40:17;99811.09;;;6.09;100.00
77192;BME280;66172;48.526;8.078;2023-12-20T02:42:43;99814.59;;;6.10;100.00
77192;BME280;66172;48.526;8.078;2023-12-20T02:45:09;99809.09;;;6.01;100.00
77192;BME280;66172;48.526;8.078;2023-12-20T02:47:35;99822.47;;;6.06;100.00
77192;BME280;66172;48.526;8.078;2023-12-20T02:50:01;99821.41;;;6.07;100.00
77192;BME280;66172;48.526;8.078;2023-12-20T02:52:28;99816.69;;;6.13;100.00
77192;BME280;66172;48.526;8.078;2023-12-20T02:54:54;99818.50;;;6.17;100.00
77192;BME280;66172;48.526;8.078;2023-12-20T02:57:20;99818.41;;;6.09;100.00
77192;BME280;66172;48.526;8.078;2023-12-20T02:59:46;99819.78;;;6.06;100.00
77192;BME280;66172;48.526;8.078;2023-12-20T03:02:11;99819.38;;;6.13;100.00
77192;BME280;66172;48.526;8.078;2023-12-20T03:04:37;99829.00;;;6.19;100.00
77192;BME280;66172;48.526;8.078;2023-12-20T03:07:03;99822.81;;;6.18;100.00
77192;BME280;66172;48.526;8.078;2023-12-20T03:09:29;99829.09;;;6.14;100.00
77192;BME280;66172;48.526;8.078;2023-12-20T03:11:55;99832.00;;;6.17;100.00
77192;BME280;66172;48.526;8.078;2023-12-20T03:14:21;99842.19;;;6.34;99.92
77192;BME280;66172;48.526;8.078;2023-12-20T03:16:50;99836.09;;;6.28;99.40
77192;BME280;66172;48.526;8.078;2023-12-20T03:19:17;99846.28;;;6.45;98.14
77192;BME280;66172;48.526;8.078;2023-12-20T03:21:43;99846.91;;;6.42;98.61
77192;BME280;66172;48.526;8.078;2023-12-20T03:24:09;99840.19;;;6.39;98.57
77192;BME280;66172;48.526;8.078;2023-12-20T03:26:35;99848.41;;;6.34;99.71
77192;BME280;66172;48.526;8.078;2023-12-20T03:29:01;99850.00;;;6.35;98.20
77192;BME280;66172;48.526;8.078;2023-12-20T03:31:27;99837.38;;;6.58;96.89
77192;BME280;66172;48.526;8.078;2023-12-20T03:33:52;99843.97;;;6.52;97.56
77192;BME280;66172;48.526;8.078;2023-12-20T03:36:20;99831.19;;;6.44;98.39
77192;BME280;66172;48.526;8.078;2023-12-20T03:38:45;99844.09;;;6.47;98.28
77192;BME280;66172;48.526;8.078;2023-12-20T03:41:11;99846.50;;;6.48;97.77
77192;BME280;66172;48.526;8.078;2023-12-20T03:43:37;99838.09;;;6.36;98.92
77192;BME280;66172;48.526;8.078;2023-12-20T03:46:03;99825.50;;;6.32;98.71
77192;BME280;66172;48.526;8.078;2023-12-20T03:48:30;99828.06;;;6.37;97.94
77192;BME280;66172;48.526;8.078;2023-12-20T03:50:56;99847.31;;;6.35;98.91
77192;BME280;66172;48.526;8.078;2023-12-20T03:53:22;99847.72;;;6.29;99.22
77192;BME280;66172;48.526;8.078;2023-12-20T03:55:48;99836.91;;;6.29;99.56
77192;BME280;66172;48.526;8.078;2023-12-20T03:58:14;99842.09;;;6.25;100.00
77192;BME280;66172;48.526;8.078;2023-12-20T04:00:40;99844.00;;;6.25;99.47
77192;BME280;66172;48.526;8.078;2023-12-20T04:03:06;99848.00;;;6.27;99.47
77192;BME280;66172;48.526;8.078;2023-12-20T04:05:32;99856.41;;;6.26;99.66
77192;BME280;66172;48.526;8.078;2023-12-20T04:08:00;99856.09;;;6.27;98.92
77192;BME280;66172;48.526;8.078;2023-12-20T04:10:26;99859.88;;;6.26;99.18
77192;BME280;66172;48.526;8.078;2023-12-20T04:12:53;99863.19;;;6.37;98.92
77192;BME280;66172;48.526;8.078;2023-12-20T04:15:20;99870.81;;;6.48;98.79
77192;BME280;66172;48.526;8.078;2023-12-20T04:17:46;99870.81;;;6.48;97.86
77192;BME280;66172;48.526;8.078;2023-12-20T04:20:12;99872.91;;;6.51;98.24
77192;BME280;66172;48.526;8.078;2023-12-20T04:22:38;99861.50;;;6.41;99.35
77192;BME280;66172;48.526;8.078;2023-12-20T04:25:04;99867.59;;;6.46;99.43
77192;BME280;66172;48.526;8.078;2023-12-20T04:27:30;99854.50;;;6.53;98.18
77192;BME280;66172;48.526;8.078;2023-12-20T04:29:55;99873.41;;;6.53;98.63
77192;BME280;66172;48.526;8.078;2023-12-20T04:32:21;99876.31;;;6.43;99.20
77192;BME280;66172;48.526;8.078;2023-12-20T04:34:47;99883.50;;;6.34;100.00
77192;BME280;66172;48.526;8.078;2023-12-20T04:37:13;99886.31;;;6.29;100.00
77192;BME280;66172;48.526;8.078;2023-12-20T04:39:39;99886.41;;;6.24;100.00
77192;BME280;66172;48.526;8.078;2023-12-20T04:42:07;99894.59;;;6.19;100.00
77192;BME280;66172;48.526;8.078;2023-12-20T04:44:33;99889.09;;;6.11;100.00
77192;BME280;66172;48.526;8.078;2023-12-20T04:46:59;99897.09;;;6.16;100.00
77192;BME280;66172;48.526;8.078;2023-12-20T04:49:25;99893.41;;;6.12;100.00
77192;BME280;66172;48.526;8.078;2023-12-20T04:51:51;99896.78;;;6.17;100.00
77192;BME280;66172;48.526;8.078;2023-12-20T04:54:17;99903.47;;;6.20;100.00
77192;BME280;66172;48.526;8.078;2023-12-20T04:56:43;99898.47;;;6.13;100.00
77192;BME280;66172;48.526;8.078;2023-12-20T04:59:09;99902.41;;;6.21;100.00
77192;BME280;66172;48.526;8.078;2023-12-20T05:01:34;99909.81;;;6.15;100.00
77192;BME280;66172;48.526;8.078;2023-12-20T05:04:00;99906.69;;;6.08;100.00
77192;BME280;66172;48.526;8.078;2023-12-20T05:06:26;99922.38;;;6.06;100.00
77192;BME280;66172;48.526;8.078;2023-12-20T05:08:52;99913.59;;;6.14;100.00
77192;BME280;66172;48.526;8.078;2023-12-20T05:11:18;99912.91;;;6.22;100.00
77192;BME280;66172;48.526;8.078;2023-12-20T05:13:44;99910.09;;;6.27;100.00
77192;BME280;66172;48.526;8.078;2023-12-20T05:16:10;99919.28;;;6.26;100.00
77192;BME280;66172;48.526;8.078;2023-12-20T05:18:36;99915.00;;;6.25;100.00
77192;BME280;66172;48.526;8.078;2023-12-20T05:21:02;99921.09;;;6.31;100.00
77192;BME280;66172;48.526;8.078;2023-12-20T05:23:28;99926.22;;;6.32;100.00
77192;BME280;66172;48.526;8.078;2023-12-20T05:25:54;99915.41;;;6.32;100.00
77192;BME280;66172;48.526;8.078;2023-12-20T05:28:19;99919.69;;;6.33;99.71
77192;BME280;66172;48.526;8.078;2023-12-20T05:30:46;99931.09;;;6.30;99.96
77192;BME280;66172;48.526;8.078;2023-12-20T05:33:12;99919.50;;;6.30;99.81
77192;BME280;66172;48.526;8.078;2023-12-20T05:35:37;99926.81;;;6.29;99.78
77192;BME280;66172;48.526;8.078;2023-12-20T05:38:03;99924.13;;;6.29;99.94
77192;BME280;66172;48.526;8.078;2023-12-20T05:40:29;99930.22;;;6.35;99.55
77192;BME280;66172;48.526;8.078;2023-12-20T05:42:55;99933.81;;;6.30;100.00
77192;BME280;66172;48.526;8.078;2023-12-20T05:45:21;99929.81;;;6.28;100.00
77192;BME280;66172;48.526;8.078;2023-12-20T05:47:47;99936.00;;;6.28;100.00
77192;BME280;66172;48.526;8.078;2023-12-20T05:50:13;99937.31;;;6.31;100.00
77192;BME280;66172;48.526;8.078;2023-12-20T05:52:39;99941.41;;;6.28;100.00
77192;BME280;66172;48.526;8.078;2023-12-20T05:55:05;99944.53;;;6.35;100.00
77192;BME280;66172;48.526;8.078;2023-12-20T05:57:30;99939.72;;;6.32;100.00
77192;BME280;66172;48.526;8.078;2023-12-20T05:59:56;99943.13;;;6.38;100.00
77192;BME280;66172;48.526;8.078;2023-12-20T06:02:22;99947.50;;;6.34;100.00
77192;BME280;66172;48.526;8.078;2023-12-20T06:04:48;99954.31;;;6.31;100.00
77192;BME280;66172;48.526;8.078;2023-12-20T06:07:15;99961.00;;;6.34;100.00
77192;BME280;66172;48.526;8.078;2023-12-20T06:09:41;99960.00;;;6.30;100.00
77192;BME280;66172;48.526;8.078;2023-12-20T06:12:07;99968.22;;;6.25;100.00
77192;BME280;66172;48.526;8.078;2023-12-20T06:14:34;99966.72;;;6.19;100.00
77192;BME280;66172;48.526;8.078;2023-12-20T06:17:00;99961.38;;;6.14;100.00
77192;BME280;66172;48.526;8.078;2023-12-20T06:19:27;99961.97;;;6.11;100.00
77192;BME280;66172;48.526;8.078;2023-12-20T06:21:53;99972.06;;;6.05;100.00
77192;BME280;66172;48.526;8.078;2023-12-20T06:24:18;99969.19;;;6.15;100.00
77192;BME280;66172;48.526;8.078;2023-12-20T06:26:44;99973.09;;;6.23;100.00
77192;BME280;66172;48.526;8.078;2023-12-20T06:29:10;99971.09;;;6.15;100.00
77192;BME280;66172;48.526;8.078;2023-12-20T06:31:36;99971.47;;;6.08;100.00
77192;BME280;66172;48.526;8.078;2023-12-20T06:34:02;99984.06;;;6.13;100.00
77192;BME280;66172;48.526;8.078;2023-12-20T06:36:28;99984.88;;;6.13;100.00
77192;BME280;66172;48.526;8.078;2023-12-20T06:38:54;99991.97;;;6.09;100.00
77192;BME280;66172;48.526;8.078;2023-12-20T06:41:20;99990.59;;;6.12;100.00
77192;BME280;66172;48.526;8.078;2023-12-20T06:43:46;99986.00;;;6.12;100.00
77192;BME280;66172;48.526;8.078;2023-12-20T06:46:12;99987.50;;;6.18;100.00
77192;BME280;66172;48.526;8.078;2023-12-20T06:48:39;99993.50;;;6.15;100.00
77192;BME280;66172;48.526;8.078;2023-12-20T06:51:05;99993.56;;;6.10;100.00
77192;BME280;66172;48.526;8.078;2023-12-20T06:53:31;100002.41;;;6.16;100.00
77192;BME280;66172;48.526;8.078;2023-12-20T06:55:57;99997.78;;;6.16;100.00
77192;BME280;66172;48.526;8.078;2023-12-20T06:58:23;100001.59;;;6.15;100.00
77192;BME280;66172;48.526;8.078;2023-12-20T07:00:50;100005.38;;;6.14;100.00
77192;BME280;66172;48.526;8.078;2023-12-20T07:03:17;100003.38;;;6.20;100.00
77192;BME280;66172;48.526;8.078;2023-12-20T07:05:43;100001.81;;;6.19;100.00
77192;BME280;66172;48.526;8.078;2023-12-20T07:08:09;100012.00;;;6.22;100.00
77192;BME280;66172;48.526;8.078;2023-12-20T07:10:36;100013.03;;;6.26;100.00
77192;BME280;66172;48.526;8.078;2023-12-20T07:13:02;100017.63;;;6.25;100.00
77192;BME280;66172;48.526;8.078;2023-12-20T07:15:28;100026.22;;;6.27;100.00
77192;BME280;66172;48.526;8.078;2023-12-20T07:17:55;100034.63;;;6.26;100.00
77192;BME280;66172;48.526;8.078;2023-12-20T07:20:21;100026.31;;;6.22;100.00
77192;BME280;66172;48.526;8.078;2023-12-20T07:22:47;100038.22;;;6.21;100.00
77192;BME280;66172;48.526;8.078;2023-12-20T07:25:12;100038.22;;;6.21;100.00
77192;BME280;66172;48.526;8.078;2023-12-20T07:27:38;100043.50;;;6.26;100.00
77192;BME280;66172;48.526;8.078;2023-12-20T07:30:05;100046.53;;;6.25;100.00
77192;BME280;66172;48.526;8.078;2023-12-20T07:32:31;100053.69;;;6.16;100.00
77192;BME280;66172;48.526;8.078;2023-12-20T07:34:57;100052.84;;;6.34;100.00
77192;BME280;66172;48.526;8.078;2023-12-20T07:37:23;100060.47;;;6.13;100.00
77192;BME280;66172;48.526;8.078;2023-12-20T07:39:49;100060.84;;;6.07;100.00
77192;BME280;66172;48.526;8.078;2023-12-20T07:42:15;100058.44;;;6.05;100.00
77192;BME280;66172;48.526;8.078;2023-12-20T07:44:41;100063.75;;;6.10;100.00
77192;BME280;66172;48.526;8.078;2023-12-20T07:47:07;100073.53;;;6.06;100.00
77192;BME280;66172;48.526;8.078;2023-12-20T07:49:33;100075.00;;;5.98;100.00
77192;BME280;66172;48.526;8.078;2023-12-20T07:51:59;100074.28;;;5.93;100.00
77192;BME280;66172;48.526;8.078;2023-12-20T07:54:25;100082.66;;;5.91;100.00
77192;BME280;66172;48.526;8.078;2023-12-20T07:56:51;100091.88;;;5.90;100.00
77192;BME280;66172;48.526;8.078;2023-12-20T07:59:17;100089.44;;;5.89;100.00
77192;BME280;66172;48.526;8.078;2023-12-20T08:01:42;100093.78;;;5.85;100.00
77192;BME280;66172;48.526;8.078;2023-12-20T08:04:08;100101.31;;;5.88;100.00
77192;BME280;66172;48.526;8.078;2023-12-20T08:06:34;100098.94;;;5.86;100.00
77192;BME280;66172;48.526;8.078;2023-12-20T08:09:00;100102.44;;;5.87;100.00
77192;BME280;66172;48.526;8.078;2023-12-20T08:11:26;100108.34;;;5.89;100.00
77192;BME280;66172;48.526;8.078;2023-12-20T08:13:52;100110.78;;;5.85;100.00
77192;BME280;66172;48.526;8.078;2023-12-20T08:16:18;100120.44;;;5.91;100.00
77192;BME280;66172;48.526;8.078;2023-12-20T08:18:44;100126.66;;;5.92;100.00
77192;BME280;66172;48.526;8.078;2023-12-20T08:21:10;100127.75;;;5.91;100.00
77192;BME280;66172;48.526;8.078;2023-12-20T08:23:37;100139.06;;;5.93;100.00
77192;BME280;66172;48.526;8.078;2023-12-20T08:26:07;100137.97;;;5.94;100.00
77192;BME280;66172;48.526;8.078;2023-12-20T08:28:33;100140.09;;;5.97;100.00
77192;BME280;66172;48.526;8.078;2023-12-20T08:30:59;100146.50;;;6.01;100.00
77192;BME280;66172;48.526;8.078;2023-12-20T08:33:25;100147.00;;;6.03;100.00
77192;BME280;66172;48.526;8.078;2023-12-20T08:35:51;100150.50;;;6.03;100.00
77192;BME280;66172;48.526;8.078;2023-12-20T08:38:17;100150.16;;;6.10;100.00
77192;BME280;66172;48.526;8.078;2023-12-20T08:40:44;100142.22;;;6.19;100.00
77192;BME280;66172;48.526;8.078;2023-12-20T08:43:10;100149.03;;;6.30;100.00
77192;BME280;66172;48.526;8.078;2023-12-20T08:45:36;100143.09;;;6.33;100.00
77192;BME280;66172;48.526;8.078;2023-12-20T08:48:02;100144.38;;;6.35;100.00
77192;BME280;66172;48.526;8.078;2023-12-20T08:50:29;100141.38;;;6.37;100.00
77192;BME280;66172;48.526;8.078;2023-12-20T08:52:55;100141.69;;;6.35;100.00
77192;BME280;66172;48.526;8.078;2023-12-20T08:55:21;100145.78;;;6.33;100.00
77192;BME280;66172;48.526;8.078;2023-12-20T08:57:47;100145.41;;;6.39;100.00
77192;BME280;66172;48.526;8.078;2023-12-20T09:00:14;100150.00;;;6.39;100.00
77192;BME280;66172;48.526;8.078;2023-12-20T09:02:41;100152.41;;;6.40;100.00
77192;BME280;66172;48.526;8.078;2023-12-20T09:05:07;100151.03;;;6.43;100.00
77192;BME280;66172;48.526;8.078;2023-12-20T09:07:33;100149.56;;;6.50;100.00
77192;BME280;66172;48.526;8.078;2023-12-20T09:09:59;100144.66;;;6.52;100.00
77192;BME280;66172;48.526;8.078;2023-12-20T09:12:25;100142.09;;;6.61;100.00
77192;BME280;66172;48.526;8.078;2023-12-20T09:14:51;100139.97;;;6.58;100.00
77192;BME280;66172;48.526;8.078;2023-12-20T09:17:18;100149.41;;;6.61;100.00
77192;BME280;66172;48.526;8.078;2023-12-20T09:19:44;100147.78;;;6.60;100.00
77192;BME280;66172;48.526;8.078;2023-12-20T09:22:11;100151.50;;;6.64;100.00
77192;BME280;66172;48.526;8.078;2023-12-20T09:24:37;100153.63;;;6.67;100.00
77192;BME280;66172;48.526;8.078;2023-12-20T09:27:05;100154.19;;;6.82;99.60
77192;BME280;66172;48.526;8.078;2023-12-20T09:29:31;100150.78;;;6.90;100.00
77192;BME280;66172;48.526;8.078;2023-12-20T09:31:57;100161.53;;;6.95;99.99
77192;BME280;66172;48.526;8.078;2023-12-20T09:34:23;100165.06;;;7.10;99.45
77192;BME280;66172;48.526;8.078;2023-12-20T09:36:49;100157.47;;;7.25;98.42
77192;BME280;66172;48.526;8.078;2023-12-20T09:39:16;100163.59;;;7.44;95.99
77192;BME280;66172;48.526;8.078;2023-12-20T09:42:07;100161.19;;;7.84;92.91
77192;BME280;66172;48.526;8.078;2023-12-20T09:44:34;100161.53;;;8.32;89.59
77192;BME280;66172;48.526;8.078;2023-12-20T09:47:03;100167.28;;;8.75;87.24
77192;BME280;66172;48.526;8.078;2023-12-20T09:49:30;100170.38;;;8.82;84.49
77192;BME280;66172;48.526;8.078;2023-12-20T09:51:56;100163.44;;;8.98;83.67
77192;BME280;66172;48.526;8.078;2023-12-20T09:54:23;100166.00;;;8.72;79.60
77192;BME280;66172;48.526;8.078;2023-12-20T09:56:50;100168.56;;;8.77;80.49
77192;BME280;66172;48.526;8.078;2023-12-20T09:59:16;100168.47;;;8.82;80.24
77192;BME280;66172;48.526;8.078;2023-12-20T10:01:42;100178.56;;;8.68;80.73
77192;BME280;66172;48.526;8.078;2023-12-20T10:04:10;100175.69;;;8.65;80.90
77192;BME280;66172;48.526;8.078;2023-12-20T10:06:43;100182.19;;;8.64;81.66
77192;BME280;66172;48.526;8.078;2023-12-20T10:09:09;100171.91;;;8.74;81.05
77192;BME280;66172;48.526;8.078;2023-12-20T10:11:36;100169.84;;;9.02;79.66
77192;BME280;66172;48.526;8.078;2023-12-20T10:14:06;100176.53;;;8.74;76.56
77192;BME280;66172;48.526;8.078;2023-12-20T10:16:33;100167.69;;;8.90;74.97
77192;BME280;66172;48.526;8.078;2023-12-20T10:19:00;100159.94;;;8.97;72.00
77192;BME280;66172;48.526;8.078;2023-12-20T10:21:30;100151.91;;;9.54;69.11
77192;BME280;66172;48.526;8.078;2023-12-20T10:23:56;100147.97;;;9.69;70.21
77192;BME280;66172;48.526;8.078;2023-12-20T10:26:24;100145.13;;;9.82;69.19
77192;BME280;66172;48.526;8.078;2023-12-20T10:28:52;100159.00;;;10.20;67.80
77192;BME280;66172;48.526;8.078;2023-12-20T10:31:34;100153.38;;;9.60;67.92
77192;BME280;66172;48.526;8.078;2023-12-20T10:34:01;100142.66;;;9.55;68.56
77192;BME280;66172;48.526;8.078;2023-12-20T10:36:32;100142.97;;;9.14;67.09
77192;BME280;66172;48.526;8.078;2023-12-20T10:38:59;100124.94;;;8.87;66.20
77192;BME280;66172;48.526;8.078;2023-12-20T10:41:27;100142.25;;;8.56;68.96
77192;BME280;66172;48.526;8.078;2023-12-20T10:43:56;100139.38;;;8.52;68.74
77192;BME280;66172;48.526;8.078;2023-12-20T10:46:22;100151.69;;;8.22;69.49
77192;BME280;66172;48.526;8.078;2023-12-20T10:48:48;100137.66;;;8.07;69.42
77192;BME280;66172;48.526;8.078;2023-12-20T10:51:17;100129.63;;;8.15;70.85
77192;BME280;66172;48.526;8.078;2023-12-20T10:53:44;100134.97;;;8.07;68.72
77192;BME280;66172;48.526;8.078;2023-12-20T10:56:15;100136.16;;;8.14;70.39
77192;BME280;66172;48.526;8.078;2023-12-20T10:58:42;100135.59;;;7.90;71.42
77192;BME280;66172;48.526;8.078;2023-12-20T11:01:13;100130.44;;;7.66;70.84
77192;BME280;66172;48.526;8.078;2023-12-20T11:03:45;100136.72;;;7.75;72.67
77192;BME280;66172;48.526;8.078;2023-12-20T11:09:06;100122.31;;;7.66;72.22
77192;BME280;66172;48.526;8.078;2023-12-20T11:14:34;100124.81;;;7.63;74.20
77192;BME280;66172;48.526;8.078;2023-12-20T11:17:10;100117.19;;;7.65;75.65
77192;BME280;66172;48.526;8.078;2023-12-20T11:22:27;100113.59;;;7.42;74.80
77192;BME280;66172;48.526;8.078;2023-12-20T11:25:00;100113.69;;;7.23;72.75
77192;BME280;66172;48.526;8.078;2023-12-20T11:27:28;100098.34;;;7.19;72.19
77192;BME280;66172;48.526;8.078;2023-12-20T11:29:56;100105.97;;;7.17;72.71
77192;BME280;66172;48.526;8.078;2023-12-20T11:34:51;100087.72;;;7.36;73.40
77192;BME280;66172;48.526;8.078;2023-12-20T11:37:19;100095.66;;;7.19;72.15
77192;BME280;66172;48.526;8.078;2023-12-20T11:39:56;100091.75;;;7.25;72.91
77192;BME280;66172;48.526;8.078;2023-12-20T11:42:25;100093.56;;;7.29;73.94
77192;BME280;66172;48.526;8.078;2023-12-20T11:44:51;100094.66;;;7.28;73.97
77192;BME280;66172;48.526;8.078;2023-12-20T11:47:17;100099.47;;;7.31;74.19
77192;BME280;66172;48.526;8.078;2023-12-20T11:49:47;100101.47;;;7.12;73.12
77192;BME280;66172;48.526;8.078;2023-12-20T11:52:13;100101.66;;;7.16;74.07
77192;BME280;66172;48.526;8.078;2023-12-20T11:54:39;100081.84;;;7.20;74.73
77192;BME280;66172;48.526;8.078;2023-12-20T11:57:05;100083.63;;;7.25;74.83
77192;BME280;66172;48.526;8.078;2023-12-20T11:59:31;100090.56;;;7.17;74.97
77192;BME280;66172;48.526;8.078;2023-12-20T12:01:58;100089.97;;;7.20;74.49
77192;BME280;66172;48.526;8.078;2023-12-20T12:04:27;100095.84;;;7.22;75.44
77192;BME280;66172;48.526;8.078;2023-12-20T12:06:53;100097.84;;;7.03;73.78
77192;BME280;66172;48.526;8.078;2023-12-20T12:09:19;100098.34;;;7.05;74.61
77192;BME280;66172;48.526;8.078;2023-12-20T12:11:45;100091.63;;;7.02;75.71
77192;BME280;66172;48.526;8.078;2023-12-20T12:14:11;100090.34;;;7.14;75.76
77192;BME280;66172;48.526;8.078;2023-12-20T12:16:37;100086.66;;;7.23;76.11
77192;BME280;66172;48.526;8.078;2023-12-20T12:19:03;100091.66;;;7.30;75.73
77192;BME280;66172;48.526;8.078;2023-12-20T12:21:30;100090.16;;;7.24;73.54
77192;BME280;66172;48.526;8.078;2023-12-20T12:24:06;100086.03;;;7.26;73.63
77192;BME280;66172;48.526;8.078;2023-12-20T12:26:32;100087.75;;;7.22;74.14
77192;BME280;66172;48.526;8.078;2023-12-20T12:28:59;100081.72;;;7.25;74.20
77192;BME280;66172;48.526;8.078;2023-12-20T12:31:27;100079.63;;;7.09;73.67
77192;BME280;66172;48.526;8.078;2023-12-20T12:33:53;100075.81;;;6.96;73.22
77192;BME280;66172;48.526;8.078;2023-12-20T12:36:19;100066.97;;;6.90;73.80
77192;BME280;66172;48.526;8.078;2023-12-20T12:38:45;100074.19;;;6.95;74.28
77192;BME280;66172;48.526;8.078;2023-12-20T12:41:13;100069.41;;;7.06;75.33
77192;BME280;66172;48.526;8.078;2023-12-20T12:43:38;100075.28;;;6.94;71.45
77192;BME280;66172;48.526;8.078;2023-12-20T12:46:04;100062.50;;;6.99;72.65
77192;BME280;66172;48.526;8.078;2023-12-20T12:48:30;100059.00;;;6.99;71.36
77192;BME280;66172;48.526;8.078;2023-12-20T12:50:57;100053.78;;;7.02;71.04
77192;BME280;66172;48.526;8.078;2023-12-20T12:53:27;100055.59;;;7.21;72.53
77192;BME280;66172;48.526;8.078;2023-12-20T12:55:53;100064.19;;;7.09;71.71
77192;BME280;66172;48.526;8.078;2023-12-20T12:58:20;100067.50;;;7.20;71.50
77192;BME280;66172;48.526;8.078;2023-12-20T13:00:46;100056.78;;;7.15;71.71
77192;BME280;66172;48.526;8.078;2023-12-20T13:03:12;100059.88;;;7.35;70.08
77192;BME280;66172;48.526;8.078;2023-12-20T13:05:38;100065.09;;;7.32;71.63
77192;BME280;66172;48.526;8.078;2023-12-20T13:08:04;100061.50;;;7.23;69.48